createdAt,value
2017-02-05T00:00:47.983Z,5.28
2017-02-05T00:01:57.795Z,5.3
2017-02-05T00:03:07.989Z,5.35
2017-02-05T00:04:18.214Z,5.3
2017-02-05T00:05:27.647Z,5.39
2017-02-05T00:06:37.456Z,5.39
2017-02-05T00:07:47.647Z,5.38
2017-02-05T00:08:57.837Z,5.27
2017-02-05T00:10:07.699Z,5.25
2017-02-05T00:11:17.118Z,5.31
2017-02-05T00:12:26.553Z,5.2
2017-02-05T00:13:36.361Z,5.2
2017-02-05T00:14:46.171Z,5.2
2017-02-05T00:15:55.598Z,5.21
2017-02-05T00:17:05.406Z,5.21
2017-02-05T00:18:15.599Z,5.2
2017-02-05T00:19:25.031Z,5.18
2017-02-05T00:20:34.462Z,5.28
2017-02-05T00:21:44.319Z,5.31
2017-02-05T00:22:54.135Z,5.31
2017-02-05T00:24:03.178Z,5.25
2017-02-05T00:25:12.988Z,5.22
2017-02-05T00:26:22.034Z,5.25
2017-02-05T00:27:31.459Z,5.33
2017-02-05T00:28:40.886Z,5.28
2017-02-05T00:29:50.698Z,5.33
2017-02-05T00:31:00.517Z,5.3
2017-02-05T00:32:10.332Z,5.22
2017-02-05T00:33:19.758Z,5.3
2017-02-05T00:34:29.194Z,5.28
2017-02-05T00:35:39.382Z,5.18
2017-02-05T00:36:48.433Z,5.25
2017-02-05T00:37:59.008Z,5.39
2017-02-05T00:39:08.490Z,5.35
2017-02-05T00:40:18.336Z,5.33
2017-02-05T00:41:27.403Z,5.21
2017-02-05T00:42:36.450Z,5.27
2017-02-05T00:43:45.879Z,5.17
2017-02-05T00:44:54.540Z,5.13
2017-02-05T00:46:04.350Z,5.2
2017-02-05T00:47:13.780Z,5.15
2017-02-05T00:48:23.203Z,5.13
2017-02-05T00:49:33.016Z,5.17
2017-02-05T00:50:42.446Z,5.2
2017-02-05T00:51:52.262Z,5.12
2017-02-05T00:53:02.079Z,5.13
2017-02-05T00:54:11.119Z,5.18
2017-02-05T00:55:20.547Z,5.18
2017-02-05T00:56:29.970Z,5.12
2017-02-05T00:57:39.397Z,5.12
2017-02-05T00:58:48.440Z,5.07
2017-02-05T00:59:57.867Z,5.13
2017-02-05T01:01:07.298Z,5.07
2017-02-05T01:02:17.108Z,5.09
2017-02-05T01:03:26.152Z,5.12
2017-02-05T01:04:35.193Z,5.09
2017-02-05T01:05:44.240Z,5.09
2017-02-05T01:06:54.048Z,5.09
2017-02-05T01:08:03.861Z,5.13
2017-02-05T01:09:13.676Z,5.02
2017-02-05T01:10:23.104Z,5.07
2017-02-05T01:11:32.926Z,5.12
2017-02-05T01:12:41.972Z,5.02
2017-02-05T01:13:51.450Z,5.07
2017-02-05T01:15:00.873Z,4.99
2017-02-05T01:16:10.683Z,5.06
2017-02-05T01:17:20.882Z,5.09
2017-02-05T01:18:30.688Z,5.12
2017-02-05T01:19:40.494Z,5.1
2017-02-05T01:20:50.348Z,5.13
2017-02-05T01:21:59.779Z,5.04
2017-02-05T01:23:09.207Z,5.03
2017-02-05T01:24:19.786Z,5
2017-02-05T01:25:29.267Z,4.91
2017-02-05T01:26:39.078Z,4.91
2017-02-05T01:27:49.265Z,4.89
2017-02-05T01:28:59.076Z,4.86
2017-02-05T01:30:09.275Z,4.94
2017-02-05T01:31:19.090Z,4.89
2017-02-05T01:32:29.670Z,4.88
2017-02-05T01:33:39.103Z,4.82
2017-02-05T01:34:48.149Z,4.91
2017-02-05T01:35:57.961Z,4.82
2017-02-05T01:37:07.767Z,4.78
2017-02-05T01:38:17.192Z,4.75
2017-02-05T01:39:26.629Z,4.77
2017-02-05T01:40:36.436Z,4.8
2017-02-05T01:41:45.868Z,4.84
2017-02-05T01:42:55.345Z,4.78
2017-02-05T01:44:05.536Z,4.72
2017-02-05T01:45:14.581Z,4.77
2017-02-05T01:46:24.390Z,4.77
2017-02-05T01:47:33.816Z,4.73
2017-02-05T01:48:44.003Z,4.72
2017-02-05T01:49:53.427Z,4.84
2017-02-05T01:51:02.474Z,4.73
2017-02-05T01:52:12.284Z,4.73
2017-02-05T01:53:21.713Z,4.77
2017-02-05T01:54:31.906Z,4.77
2017-02-05T01:55:42.100Z,4.73
2017-02-05T01:56:51.525Z,4.7
2017-02-05T01:58:00.954Z,4.69
2017-02-05T01:59:10.379Z,4.72
2017-02-05T02:00:19.850Z,4.77
2017-02-05T02:01:30.042Z,4.8
2017-02-05T02:02:39.470Z,4.8
2017-02-05T02:03:49.278Z,4.72
2017-02-05T02:04:59.085Z,4.8
2017-02-05T02:06:08.516Z,4.77
2017-02-05T02:07:17.945Z,4.8
2017-02-05T02:08:27.370Z,4.72
2017-02-05T02:09:36.032Z,4.7
2017-02-05T02:10:46.224Z,4.7
2017-02-05T02:11:56.029Z,4.65
2017-02-05T02:13:05.075Z,4.58
2017-02-05T02:14:14.505Z,4.7
2017-02-05T02:15:24.314Z,4.66
2017-02-05T02:16:34.121Z,4.67
2017-02-05T02:17:42.834Z,4.69
2017-02-05T02:18:52.262Z,4.75
2017-02-05T02:20:01.306Z,4.73
2017-02-05T02:21:10.735Z,4.7
2017-02-05T02:22:20.552Z,4.67
2017-02-05T02:23:30.365Z,4.69
2017-02-05T02:24:40.563Z,4.75
2017-02-05T02:25:49.608Z,4.7
2017-02-05T02:26:58.650Z,4.7
2017-02-05T02:28:08.461Z,4.77
2017-02-05T02:29:18.654Z,4.72
2017-02-05T02:30:28.089Z,4.85
2017-02-05T02:31:37.904Z,4.78
2017-02-05T02:32:48.096Z,4.84
2017-02-05T02:33:58.300Z,4.8
2017-02-05T02:35:07.780Z,4.82
2017-02-05T02:36:17.208Z,4.72
2017-02-05T02:37:27.016Z,4.7
2017-02-05T02:38:36.824Z,4.72
2017-02-05T02:39:46.298Z,4.69
2017-02-05T02:40:56.107Z,4.72
2017-02-05T02:42:05.529Z,4.78
2017-02-05T02:43:15.374Z,4.8
2017-02-05T02:44:25.182Z,4.72
2017-02-05T02:45:34.993Z,4.69
2017-02-05T02:46:44.039Z,4.8
2017-02-05T02:47:53.462Z,4.7
2017-02-05T02:49:02.888Z,4.72
2017-02-05T02:50:12.696Z,4.84
2017-02-05T02:51:22.506Z,4.78
2017-02-05T02:52:32.697Z,4.69
2017-02-05T02:53:42.508Z,4.75
2017-02-05T02:54:51.928Z,4.94
2017-02-05T02:56:01.742Z,4.96
2017-02-05T02:57:11.172Z,4.89
2017-02-05T02:58:20.597Z,4.86
2017-02-05T02:59:30.405Z,4.91
2017-02-05T03:00:39.450Z,4.97
2017-02-05T03:01:50.024Z,4.92
2017-02-05T03:02:59.835Z,4.99
2017-02-05T03:04:10.078Z,5.12
2017-02-05T03:05:19.126Z,5.15
2017-02-05T03:06:28.937Z,5.15
2017-02-05T03:07:37.983Z,5.1
2017-02-05T03:08:47.414Z,5.1
2017-02-05T03:09:57.604Z,5.07
2017-02-05T03:11:07.413Z,5.03
2017-02-05T03:12:17.605Z,5.07
2017-02-05T03:13:26.650Z,5.06
2017-02-05T03:14:36.838Z,5.07
2017-02-05T03:15:46.264Z,5.06
2017-02-05T03:16:55.692Z,5.06
2017-02-05T03:18:04.352Z,4.94
2017-02-05T03:19:14.159Z,5.03
2017-02-05T03:20:23.618Z,5.07
2017-02-05T03:21:33.475Z,4.99
2017-02-05T03:22:43.670Z,4.94
2017-02-05T03:23:53.478Z,4.99
2017-02-05T03:25:03.285Z,4.97
2017-02-05T03:26:12.326Z,4.97
2017-02-05T03:27:22.139Z,5.03
2017-02-05T03:28:31.566Z,5.04
2017-02-05T03:29:41.759Z,5.04
2017-02-05T03:30:51.963Z,5
2017-02-05T03:32:01.001Z,5.09
2017-02-05T03:33:10.430Z,5.03
2017-02-05T03:34:20.249Z,5.04
2017-02-05T03:35:29.676Z,5.04
2017-02-05T03:36:39.102Z,5.02
2017-02-05T03:37:49.680Z,5.03
2017-02-05T03:38:59.920Z,5
2017-02-05T03:40:09.347Z,5.1
2017-02-05T03:41:18.237Z,5.15
2017-02-05T03:42:27.458Z,5.2
2017-02-05T03:43:36.115Z,5.07
2017-02-05T03:44:45.168Z,5.13
2017-02-05T03:45:54.975Z,5.1
2017-02-05T03:47:04.788Z,5.06
2017-02-05T03:48:14.603Z,4.99
2017-02-05T03:49:23.647Z,5.02
2017-02-05T03:50:32.682Z,5
2017-02-05T03:51:42.104Z,5.03
2017-02-05T03:52:52.299Z,4.96
2017-02-05T03:54:01.728Z,5.02
2017-02-05T03:55:11.160Z,5.02
2017-02-05T03:56:20.210Z,4.92
2017-02-05T03:57:29.632Z,4.96
2017-02-05T03:58:39.061Z,5.03
2017-02-05T03:59:48.872Z,5.03
2017-02-05T04:00:59.066Z,5.02
2017-02-05T04:02:09.257Z,5.02
2017-02-05T04:03:18.694Z,4.99
2017-02-05T04:04:28.122Z,4.94
2017-02-05T04:05:38.319Z,4.94
2017-02-05T04:06:47.751Z,4.91
2017-02-05T04:07:57.994Z,4.8
2017-02-05T04:09:07.805Z,4.86
2017-02-05T04:10:16.853Z,4.84
2017-02-05T04:11:26.287Z,4.97
2017-02-05T04:12:36.483Z,4.94
2017-02-05T04:13:45.916Z,5.04
2017-02-05T04:14:56.110Z,5.02
2017-02-05T04:16:05.919Z,5.1
2017-02-05T04:17:14.963Z,5.04
2017-02-05T04:18:25.154Z,5.03
2017-02-05T04:19:34.191Z,5
2017-02-05T04:20:44.000Z,5.02
2017-02-05T04:21:53.424Z,4.94
2017-02-05T04:23:03.615Z,4.92
2017-02-05T04:24:13.426Z,4.94
2017-02-05T04:25:22.851Z,4.89
2017-02-05T04:26:33.041Z,5
2017-02-05T04:27:42.851Z,4.94
2017-02-05T04:28:53.042Z,4.96
2017-02-05T04:30:02.084Z,5
2017-02-05T04:31:11.513Z,4.94
2017-02-05T04:32:21.318Z,4.92
2017-02-05T04:33:31.125Z,5.03
2017-02-05T04:34:42.705Z,5
2017-02-05T04:35:51.925Z,4.97
2017-02-05T04:37:00.969Z,4.96
2017-02-05T04:38:10.776Z,5.07
2017-02-05T04:39:20.202Z,5.09
2017-02-05T04:40:29.625Z,4.99
2017-02-05T04:41:38.666Z,5.02
2017-02-05T04:42:48.146Z,5.09
2017-02-05T04:43:57.956Z,5.03
2017-02-05T04:45:08.148Z,5
2017-02-05T04:46:17.193Z,5.02
2017-02-05T04:47:26.623Z,5.02
2017-02-05T04:48:36.050Z,5
2017-02-05T04:49:45.859Z,5.09
2017-02-05T04:50:56.051Z,5.27
2017-02-05T04:52:06.241Z,5.31
2017-02-05T04:53:16.056Z,5.36
2017-02-05T04:54:24.719Z,5.2
2017-02-05T04:55:34.526Z,5.12
2017-02-05T04:56:43.960Z,5
2017-02-05T04:57:53.390Z,5.03
2017-02-05T04:59:02.820Z,4.91
2017-02-05T05:00:11.483Z,4.86
2017-02-05T05:01:21.718Z,4.92
2017-02-05T05:02:30.758Z,4.88
2017-02-05T05:03:40.568Z,4.77
2017-02-05T05:04:50.413Z,4.69
2017-02-05T05:05:59.834Z,4.66
2017-02-05T05:07:09.265Z,4.55
2017-02-05T05:08:18.690Z,4.62
2017-02-05T05:09:28.113Z,4.58
2017-02-05T05:10:37.926Z,4.45
2017-02-05T05:11:48.163Z,4.48
2017-02-05T05:12:57.971Z,4.52
2017-02-05T05:14:07.398Z,4.54
2017-02-05T05:15:17.204Z,4.54
2017-02-05T05:16:25.874Z,4.42
2017-02-05T05:17:35.683Z,4.48
2017-02-05T05:18:45.494Z,4.45
2017-02-05T05:19:55.689Z,4.47
2017-02-05T05:21:05.120Z,4.51
2017-02-05T05:22:14.171Z,4.45
2017-02-05T05:23:23.650Z,4.36
2017-02-05T05:24:33.077Z,4.26
2017-02-05T05:25:42.890Z,4.34
2017-02-05T05:26:53.083Z,4.48
2017-02-05T05:28:02.136Z,4.5
2017-02-05T05:29:11.945Z,4.45
2017-02-05T05:30:21.373Z,4.4
2017-02-05T05:31:31.565Z,4.36
2017-02-05T05:32:40.615Z,4.36
2017-02-05T05:33:50.440Z,4.4
2017-02-05T05:35:00.249Z,4.33
2017-02-05T05:36:09.291Z,4.33
2017-02-05T05:37:18.719Z,4.42
2017-02-05T05:38:28.147Z,4.47
2017-02-05T05:39:37.953Z,4.48
2017-02-05T05:40:48.146Z,4.48
2017-02-05T05:41:57.189Z,4.51
2017-02-05T05:43:06.616Z,4.51
2017-02-05T05:44:16.038Z,4.59
2017-02-05T05:45:26.231Z,4.54
2017-02-05T05:46:35.712Z,4.48
2017-02-05T05:47:45.518Z,4.48
2017-02-05T05:48:55.333Z,4.47
2017-02-05T05:50:04.760Z,4.48
2017-02-05T05:51:13.809Z,4.48
2017-02-05T05:52:23.617Z,4.45
2017-02-05T05:53:32.659Z,4.54
2017-02-05T05:54:41.706Z,4.5
2017-02-05T05:55:50.746Z,4.44
2017-02-05T05:57:00.559Z,4.48
2017-02-05T05:58:09.635Z,4.48
2017-02-05T05:59:19.053Z,4.6
2017-02-05T06:00:28.099Z,4.78
2017-02-05T06:01:38.286Z,4.72
2017-02-05T06:02:46.945Z,4.69
2017-02-05T06:03:56.757Z,4.7
2017-02-05T06:05:06.565Z,4.63
2017-02-05T06:06:15.612Z,4.67
2017-02-05T06:07:25.036Z,4.62
2017-02-05T06:08:34.076Z,4.7
2017-02-05T06:09:43.502Z,4.67
2017-02-05T06:10:53.313Z,4.65
2017-02-05T06:12:03.118Z,4.7
2017-02-05T06:13:12.545Z,4.65
2017-02-05T06:14:21.971Z,4.77
2017-02-05T06:15:31.828Z,4.62
2017-02-05T06:16:40.871Z,4.73
2017-02-05T06:17:49.922Z,4.73
2017-02-05T06:18:58.967Z,4.66
2017-02-05T06:20:09.160Z,4.58
2017-02-05T06:21:19.737Z,4.67
2017-02-05T06:22:29.541Z,4.6
2017-02-05T06:23:38.969Z,4.7
2017-02-05T06:24:49.548Z,4.55
2017-02-05T06:25:59.742Z,4.75
2017-02-05T06:27:09.226Z,4.69
2017-02-05T06:28:19.037Z,4.67
2017-02-05T06:29:29.245Z,4.62
2017-02-05T06:30:38.288Z,4.6
2017-02-05T06:31:48.103Z,4.7
2017-02-05T06:32:57.531Z,4.73
2017-02-05T06:34:07.727Z,4.59
2017-02-05T06:35:16.390Z,4.63
2017-02-05T06:36:26.203Z,4.55
2017-02-05T06:37:35.632Z,4.55
2017-02-05T06:38:45.821Z,4.55
2017-02-05T06:39:55.631Z,4.48
2017-02-05T06:41:04.675Z,4.52
2017-02-05T06:42:14.484Z,4.5
2017-02-05T06:43:24.682Z,4.48
2017-02-05T06:44:33.726Z,4.5
2017-02-05T06:45:43.536Z,4.45
2017-02-05T06:46:53.348Z,4.44
2017-02-05T06:48:03.156Z,4.48
2017-02-05T06:49:12.966Z,4.42
2017-02-05T06:50:23.156Z,4.48
2017-02-05T06:51:33.004Z,4.48
2017-02-05T06:52:42.426Z,4.47
2017-02-05T06:53:51.472Z,4.45
2017-02-05T06:55:01.282Z,4.44
2017-02-05T06:56:11.102Z,4.51
2017-02-05T06:57:20.911Z,4.48
2017-02-05T06:58:30.722Z,4.45
2017-02-05T06:59:40.529Z,4.48
2017-02-05T07:00:49.579Z,4.5
2017-02-05T07:01:59.826Z,4.47
2017-02-05T07:03:09.259Z,4.48
2017-02-05T07:04:18.690Z,4.47
2017-02-05T07:05:28.122Z,4.5
2017-02-05T07:06:37.949Z,4.52
2017-02-05T07:07:47.375Z,4.52
2017-02-05T07:08:56.800Z,4.51
2017-02-05T07:10:05.846Z,4.45
2017-02-05T07:11:15.693Z,4.51
2017-02-05T07:12:25.886Z,4.51
2017-02-05T07:13:35.745Z,4.48
2017-02-05T07:14:45.554Z,4.48
2017-02-05T07:15:55.406Z,4.48
2017-02-05T07:17:05.220Z,4.54
2017-02-05T07:18:15.037Z,4.52
2017-02-05T07:19:24.896Z,4.52
2017-02-05T07:20:34.324Z,4.52
2017-02-05T07:21:43.759Z,4.48
2017-02-05T07:22:53.564Z,4.55
2017-02-05T07:24:02.993Z,4.55
2017-02-05T07:25:12.802Z,4.52
2017-02-05T07:26:21.840Z,4.58
2017-02-05T07:27:32.420Z,4.59
2017-02-05T07:28:42.236Z,4.6
2017-02-05T07:29:51.702Z,4.54
2017-02-05T07:31:01.511Z,4.58
2017-02-05T07:32:11.706Z,4.73
2017-02-05T07:33:21.522Z,4.66
2017-02-05T07:34:30.945Z,4.73
2017-02-05T07:35:40.755Z,4.67
2017-02-05T07:36:50.182Z,4.7
2017-02-05T07:37:59.998Z,4.65
2017-02-05T07:39:09.806Z,4.6
2017-02-05T07:40:20.002Z,4.78
2017-02-05T07:41:29.434Z,4.69
2017-02-05T07:42:38.916Z,4.66
2017-02-05T07:43:48.349Z,4.72
2017-02-05T07:44:57.779Z,4.75
2017-02-05T07:46:07.591Z,4.77
2017-02-05T07:47:16.637Z,4.78
2017-02-05T07:48:26.838Z,4.78
2017-02-05T07:49:36.270Z,4.86
2017-02-05T07:50:45.701Z,4.91
2017-02-05T07:51:54.748Z,4.99
2017-02-05T07:53:04.178Z,5.03
2017-02-05T07:54:14.371Z,4.99
2017-02-05T07:55:23.803Z,5
2017-02-05T07:56:33.229Z,5.09
2017-02-05T07:57:42.657Z,5.12
2017-02-05T07:58:53.234Z,5.2
2017-02-05T08:00:03.048Z,5.24
2017-02-05T08:01:12.101Z,5.21
2017-02-05T08:02:20.766Z,5.21
2017-02-05T08:03:31.343Z,5.22
2017-02-05T08:04:40.385Z,5.21
2017-02-05T08:05:49.812Z,5.28
2017-02-05T08:06:59.619Z,5.24
2017-02-05T08:08:08.276Z,5.33
2017-02-05T08:09:18.129Z,5.33
2017-02-05T08:10:28.325Z,5.18
2017-02-05T08:11:37.367Z,5.33
2017-02-05T08:12:47.565Z,5.3
2017-02-05T08:13:56.616Z,5.3
2017-02-05T08:15:06.431Z,5.3
2017-02-05T08:16:15.476Z,5.28
2017-02-05T08:17:24.904Z,5.38
2017-02-05T08:18:34.336Z,5.39
2017-02-05T08:19:43.762Z,5.31
2017-02-05T08:20:53.190Z,5.38
2017-02-05T08:22:03.004Z,5.43
2017-02-05T08:23:12.869Z,5.38
2017-02-05T08:24:22.292Z,5.51
2017-02-05T08:25:31.727Z,5.57
2017-02-05T08:26:41.930Z,5.65
2017-02-05T08:27:51.741Z,5.75
2017-02-05T08:29:01.167Z,5.81
2017-02-05T08:30:10.598Z,5.82
2017-02-05T08:31:20.416Z,5.82
2017-02-05T08:32:30.230Z,5.91
2017-02-05T08:33:40.041Z,5.86
2017-02-05T08:34:48.753Z,5.91
2017-02-05T08:35:58.183Z,5.85
2017-02-05T08:37:07.996Z,5.96
2017-02-05T08:38:18.189Z,6.06
2017-02-05T08:39:28.048Z,6.15
2017-02-05T08:40:37.534Z,6.14
2017-02-05T08:41:47.355Z,6.19
2017-02-05T08:42:56.787Z,6.22
2017-02-05T08:44:07.369Z,6.33
2017-02-05T08:45:16.798Z,6.44
2017-02-05T08:46:26.607Z,6.66
2017-02-05T08:47:36.807Z,6.64
2017-02-05T08:48:45.852Z,6.7
2017-02-05T08:49:54.899Z,6.58
2017-02-05T08:51:04.337Z,6.73
2017-02-05T08:52:13.820Z,6.61
2017-02-05T08:53:23.639Z,6.69
2017-02-05T08:54:33.101Z,6.8
2017-02-05T08:55:42.159Z,6.7
2017-02-05T08:56:51.586Z,6.77
2017-02-05T08:58:01.019Z,6.89
2017-02-05T08:59:10.458Z,6.97
2017-02-05T09:00:19.893Z,7.02
2017-02-05T09:01:29.324Z,7.09
2017-02-05T09:02:39.524Z,7.05
2017-02-05T09:03:49.774Z,7.03
2017-02-05T09:04:59.624Z,6.97
2017-02-05T09:06:08.672Z,7.05
2017-02-05T09:07:18.106Z,7.15
2017-02-05T09:08:27.913Z,7.06
2017-02-05T09:09:37.395Z,6.92
2017-02-05T09:10:47.205Z,6.81
2017-02-05T09:11:56.634Z,6.69
2017-02-05T09:13:06.449Z,6.69
2017-02-05T09:14:16.265Z,6.46
2017-02-05T09:15:25.312Z,6.33
2017-02-05T09:16:35.127Z,6.17
2017-02-05T09:17:44.557Z,5.94
2017-02-05T09:18:53.989Z,5.83
2017-02-05T09:20:04.189Z,5.81
2017-02-05T09:21:12.852Z,5.74
2017-02-05T09:22:22.278Z,5.74
2017-02-05T09:23:32.476Z,5.63
2017-02-05T09:24:41.904Z,5.6
2017-02-05T09:25:51.331Z,5.65
2017-02-05T09:27:01.528Z,5.63
2017-02-05T09:28:10.962Z,5.74
2017-02-05T09:29:20.776Z,5.71
2017-02-05T09:30:30.218Z,5.85
2017-02-05T09:31:39.655Z,5.76
2017-02-05T09:32:49.556Z,5.79
2017-02-05T09:33:58.991Z,5.91
2017-02-05T09:35:08.035Z,5.91
2017-02-05T09:36:17.470Z,5.9
2017-02-05T09:37:28.046Z,5.96
2017-02-05T09:38:37.147Z,5.96
2017-02-05T09:39:45.807Z,6.11
2017-02-05T09:40:55.620Z,6.25
2017-02-05T09:42:05.055Z,6.49
2017-02-05T09:43:14.868Z,6.46
2017-02-05T09:44:24.350Z,6.54
2017-02-05T09:45:33.778Z,6.44
2017-02-05T09:46:43.590Z,6.41
2017-02-05T09:47:52.639Z,6.44
2017-02-05T09:49:01.692Z,6.4
2017-02-05T09:50:11.891Z,6.44
2017-02-05T09:51:20.983Z,6.49
2017-02-05T09:52:30.797Z,6.4
2017-02-05T09:53:39.847Z,6.33
2017-02-05T09:54:49.662Z,6.44
2017-02-05T09:55:59.478Z,6.46
2017-02-05T09:57:09.321Z,6.43
2017-02-05T09:58:18.751Z,6.46
2017-02-05T09:59:28.619Z,6.46
2017-02-05T10:00:38.437Z,6.52
2017-02-05T10:01:48.278Z,6.49
2017-02-05T10:02:58.096Z,6.61
2017-02-05T10:04:07.911Z,6.62
2017-02-05T10:05:17.375Z,6.61
2017-02-05T10:06:26.049Z,6.59
2017-02-05T10:07:35.917Z,6.67
2017-02-05T10:08:45.354Z,6.56
2017-02-05T10:09:55.174Z,6.74
2017-02-05T10:11:04.608Z,7.07
2017-02-05T10:12:14.038Z,7.35
2017-02-05T10:13:23.902Z,7.53
2017-02-05T10:14:32.948Z,7.67
2017-02-05T10:15:42.433Z,7.8
2017-02-05T10:16:52.252Z,7.85
2017-02-05T10:18:01.687Z,7.93
2017-02-05T10:19:11.177Z,8.02
2017-02-05T10:20:20.992Z,8.15
2017-02-05T10:21:30.048Z,8.16
2017-02-05T10:22:39.097Z,8.16
2017-02-05T10:23:48.146Z,8.5
2017-02-05T10:24:56.810Z,8.76
2017-02-05T10:26:07.010Z,8.87
2017-02-05T10:27:16.443Z,8.99
2017-02-05T10:28:25.876Z,9.23
2017-02-05T10:29:35.689Z,9.29
2017-02-05T10:30:45.126Z,9.48
2017-02-05T10:31:55.325Z,9.6
2017-02-05T10:33:04.760Z,9.6
2017-02-05T10:34:13.810Z,9.5
2017-02-05T10:35:24.046Z,9.36
2017-02-05T10:36:33.479Z,9.02
2017-02-05T10:37:44.061Z,8.89
2017-02-05T10:38:53.112Z,8.74
2017-02-05T10:40:02.547Z,8.56
2017-02-05T10:41:11.978Z,8.29
2017-02-05T10:42:21.792Z,8.04
2017-02-05T10:43:30.844Z,8.05
2017-02-05T10:44:41.039Z,7.9
2017-02-05T10:45:50.471Z,7.8
2017-02-05T10:46:59.903Z,7.61
2017-02-05T10:48:09.718Z,7.71
2017-02-05T10:49:19.536Z,7.71
2017-02-05T10:50:28.970Z,7.57
2017-02-05T10:51:37.634Z,7.6
2017-02-05T10:52:47.070Z,7.67
2017-02-05T10:53:56.558Z,7.64
2017-02-05T10:55:06.395Z,7.55
2017-02-05T10:56:16.220Z,7.77
2017-02-05T10:57:26.043Z,7.71
2017-02-05T10:58:35.101Z,7.6
2017-02-05T10:59:45.303Z,7.6
2017-02-05T11:00:54.739Z,7.57
2017-02-05T11:02:04.946Z,7.45
2017-02-05T11:03:14.033Z,7.34
2017-02-05T11:04:23.845Z,7.32
2017-02-05T11:05:32.899Z,7.31
2017-02-05T11:06:42.714Z,7.23
2017-02-05T11:07:51.762Z,7.07
2017-02-05T11:09:01.237Z,7.02
2017-02-05T11:10:10.671Z,6.92
2017-02-05T11:11:19.778Z,6.98
2017-02-05T11:12:28.830Z,6.92
2017-02-05T11:13:38.649Z,6.98
2017-02-05T11:14:48.086Z,7.06
2017-02-05T11:15:57.902Z,7.1
2017-02-05T11:17:07.782Z,7.16
2017-02-05T11:18:16.447Z,7.28
2017-02-05T11:19:25.877Z,7.3
2017-02-05T11:20:34.543Z,7.37
2017-02-05T11:21:44.360Z,7.4
2017-02-05T11:22:54.179Z,7.34
2017-02-05T11:24:03.618Z,7.5
2017-02-05T11:25:13.435Z,7.5
2017-02-05T11:26:23.252Z,7.53
2017-02-05T11:27:32.684Z,7.58
2017-02-05T11:28:42.171Z,7.71
2017-02-05T11:29:51.602Z,7.69
2017-02-05T11:31:01.454Z,7.75
2017-02-05T11:32:10.896Z,7.89
2017-02-05T11:33:20.334Z,7.87
2017-02-05T11:34:29.821Z,7.93
2017-02-05T11:35:39.254Z,7.95
2017-02-05T11:36:48.687Z,8.02
2017-02-05T11:37:57.738Z,8
2017-02-05T11:39:06.790Z,8
2017-02-05T11:40:15.895Z,7.98
2017-02-05T11:41:24.946Z,7.92
2017-02-05T11:42:33.999Z,7.95
2017-02-05T11:43:43.817Z,7.93
2017-02-05T11:44:53.253Z,7.92
2017-02-05T11:46:02.353Z,7.93
2017-02-05T11:47:11.405Z,7.93
2017-02-05T11:48:20.844Z,7.92
2017-02-05T11:49:30.281Z,7.89
2017-02-05T11:50:40.491Z,7.97
2017-02-05T11:51:50.003Z,7.97
2017-02-05T11:52:59.438Z,7.95
2017-02-05T11:54:08.493Z,7.93
2017-02-05T11:55:17.159Z,8.07
2017-02-05T11:56:26.203Z,7.98
2017-02-05T11:57:34.921Z,8.02
2017-02-05T11:58:43.978Z,7.93
2017-02-05T11:59:54.185Z,7.86
2017-02-05T12:01:03.240Z,7.83
2017-02-05T12:02:12.674Z,7.79
2017-02-05T12:03:22.494Z,7.77
2017-02-05T12:04:32.310Z,7.77
2017-02-05T12:05:41.743Z,7.69
2017-02-05T12:06:50.797Z,7.63
2017-02-05T12:08:00.613Z,7.67
2017-02-05T12:09:10.047Z,7.69
2017-02-05T12:10:19.861Z,7.71
2017-02-05T12:11:29.684Z,7.71
2017-02-05T12:12:39.116Z,7.71
2017-02-05T12:13:48.205Z,7.71
2017-02-05T12:14:57.307Z,7.63
2017-02-05T12:16:07.901Z,7.75
2017-02-05T12:17:17.722Z,7.8
2017-02-05T12:18:26.778Z,7.8
2017-02-05T12:19:36.596Z,7.85
2017-02-05T12:20:46.461Z,7.87
2017-02-05T12:21:55.895Z,7.85
2017-02-05T12:23:06.481Z,7.86
2017-02-05T12:24:15.917Z,7.95
2017-02-05T12:25:26.116Z,8.02
2017-02-05T12:26:35.995Z,7.97
2017-02-05T12:27:46.201Z,8.01
2017-02-05T12:28:55.636Z,8.04
2017-02-05T12:30:05.076Z,7.93
2017-02-05T12:31:14.511Z,7.98
2017-02-05T12:32:24.738Z,7.95
2017-02-05T12:33:33.789Z,7.98
2017-02-05T12:34:43.994Z,8.01
2017-02-05T12:35:53.815Z,7.93
2017-02-05T12:37:04.021Z,7.93
2017-02-05T12:38:13.470Z,8
2017-02-05T12:39:23.282Z,7.98
2017-02-05T12:40:33.476Z,7.98
2017-02-05T12:41:42.912Z,8
2017-02-05T12:42:52.349Z,7.98
2017-02-05T12:44:01.449Z,7.97
2017-02-05T12:45:10.887Z,7.95
2017-02-05T12:46:20.320Z,7.97
2017-02-05T12:47:30.136Z,7.97
2017-02-05T12:48:39.959Z,7.87
2017-02-05T12:49:49.444Z,7.86
2017-02-05T12:50:59.643Z,7.82
2017-02-05T12:52:09.084Z,7.89
2017-02-05T12:53:18.137Z,7.83
2017-02-05T12:54:27.956Z,7.89
2017-02-05T12:55:37.006Z,7.89
2017-02-05T12:56:46.829Z,7.86
2017-02-05T12:57:55.880Z,7.77
2017-02-05T12:59:06.085Z,7.77
2017-02-05T13:00:15.900Z,7.79
2017-02-05T13:01:25.718Z,7.8
2017-02-05T13:02:35.151Z,7.8
2017-02-05T13:03:44.580Z,7.74
2017-02-05T13:04:54.394Z,7.72
2017-02-05T13:06:03.831Z,7.85
2017-02-05T13:07:12.929Z,7.92
2017-02-05T13:08:22.749Z,7.89
2017-02-05T13:09:32.565Z,7.93
2017-02-05T13:10:41.608Z,7.9
2017-02-05T13:11:51.844Z,7.92
2017-02-05T13:13:01.327Z,7.95
2017-02-05T13:14:10.376Z,7.98
2017-02-05T13:15:20.189Z,7.95
2017-02-05T13:16:30.007Z,8.01
2017-02-05T13:17:40.208Z,8.07
2017-02-05T13:18:49.688Z,8.05
2017-02-05T13:19:59.883Z,8.05
2017-02-05T13:21:09.321Z,8.04
2017-02-05T13:22:19.140Z,8.18
2017-02-05T13:23:28.581Z,8.04
2017-02-05T13:24:37.682Z,8.11
2017-02-05T13:25:47.115Z,8.04
2017-02-05T13:26:56.932Z,8.11
2017-02-05T13:28:05.984Z,8.16
2017-02-05T13:29:15.040Z,8.07
2017-02-05T13:30:24.923Z,8.12
2017-02-05T13:31:35.501Z,8.15
2017-02-05T13:32:45.319Z,8.18
2017-02-05T13:33:55.137Z,8.12
2017-02-05T13:35:05.334Z,8.16
2017-02-05T13:36:14.768Z,8.15
2017-02-05T13:37:24.198Z,8.18
2017-02-05T13:38:34.015Z,8.16
2017-02-05T13:39:43.453Z,8.2
2017-02-05T13:40:52.890Z,8.22
2017-02-05T13:42:02.326Z,8.22
2017-02-05T13:43:11.379Z,8.19
2017-02-05T13:44:20.467Z,8.12
2017-02-05T13:45:29.902Z,8.23
2017-02-05T13:46:39.340Z,8.23
2017-02-05T13:47:49.980Z,8.26
2017-02-05T13:48:59.799Z,8.34
2017-02-05T13:50:08.464Z,8.34
2017-02-05T13:51:18.283Z,8.33
2017-02-05T13:52:27.717Z,8.26
2017-02-05T13:53:37.145Z,8.29
2017-02-05T13:54:46.961Z,8.29
2017-02-05T13:55:57.163Z,8.29
2017-02-05T13:57:07.365Z,8.16
2017-02-05T13:58:17.185Z,8.15
2017-02-05T13:59:26.242Z,8.08
2017-02-05T14:00:36.062Z,8.07
2017-02-05T14:01:45.112Z,8.08
2017-02-05T14:02:54.932Z,8.02
2017-02-05T14:04:04.372Z,8.02
2017-02-05T14:05:13.861Z,8.02
2017-02-05T14:06:22.911Z,7.95
2017-02-05T14:07:31.960Z,7.86
2017-02-05T14:08:41.777Z,7.9
2017-02-05T14:09:51.976Z,7.82
2017-02-05T14:11:01.458Z,7.71
2017-02-05T14:12:10.128Z,7.68
2017-02-05T14:13:19.946Z,7.68
2017-02-05T14:14:30.143Z,7.71
2017-02-05T14:15:39.577Z,7.77
2017-02-05T14:16:49.445Z,7.75
2017-02-05T14:17:58.878Z,7.69
2017-02-05T14:19:07.930Z,7.68
2017-02-05T14:20:17.744Z,7.71
2017-02-05T14:21:27.182Z,7.71
2017-02-05T14:22:37.001Z,7.77
2017-02-05T14:23:46.812Z,7.8
2017-02-05T14:24:56.633Z,7.8
2017-02-05T14:26:06.075Z,7.86
2017-02-05T14:27:16.281Z,7.97
2017-02-05T14:28:26.145Z,8.02
2017-02-05T14:29:35.958Z,7.93
2017-02-05T14:30:44.631Z,7.93
2017-02-05T14:31:54.062Z,7.92
2017-02-05T14:33:03.118Z,8
2017-02-05T14:34:12.936Z,7.92
2017-02-05T14:35:22.371Z,7.95
2017-02-05T14:36:32.569Z,7.95
2017-02-05T14:37:42.387Z,7.93
2017-02-05T14:38:52.206Z,8
2017-02-05T14:40:01.692Z,7.97
2017-02-05T14:41:11.128Z,7.97
2017-02-05T14:42:20.944Z,8.16
2017-02-05T14:43:30.375Z,8.12
2017-02-05T14:44:39.801Z,8.07
2017-02-05T14:45:48.847Z,8.08
2017-02-05T14:46:58.665Z,8.08
2017-02-05T14:48:07.713Z,8.19
2017-02-05T14:49:16.767Z,8.11
2017-02-05T14:50:26.585Z,8.05
2017-02-05T14:51:36.063Z,8.11
2017-02-05T14:52:45.883Z,8.04
2017-02-05T14:53:55.317Z,8.08
2017-02-05T14:55:05.521Z,8.08
2017-02-05T14:56:15.333Z,8.11
2017-02-05T14:57:24.765Z,8.12
2017-02-05T14:58:34.201Z,8.18
2017-02-05T14:59:44.015Z,8.12
2017-02-05T15:00:53.835Z,8.19
2017-02-05T15:02:02.502Z,8.22
2017-02-05T15:03:11.610Z,8.19
2017-02-05T15:04:21.046Z,8.19
2017-02-05T15:05:29.721Z,8.3
2017-02-05T15:06:38.771Z,8.3
2017-02-05T15:07:48.592Z,8.28
2017-02-05T15:08:57.641Z,8.26
2017-02-05T15:10:07.459Z,8.34
2017-02-05T15:11:16.123Z,8.28
2017-02-05T15:12:26.561Z,8.2
2017-02-05T15:13:35.687Z,8.15
2017-02-05T15:14:45.554Z,8.23
2017-02-05T15:15:54.988Z,8.22
2017-02-05T15:17:04.106Z,8.15
2017-02-05T15:18:13.922Z,8.08
2017-02-05T15:19:23.353Z,8.04
2017-02-05T15:20:33.549Z,8.07
2017-02-05T15:21:43.369Z,8.07
2017-02-05T15:22:52.421Z,8.08
2017-02-05T15:24:02.087Z,8.08
2017-02-05T15:25:11.677Z,7.93
2017-02-05T15:26:21.500Z,7.9
2017-02-05T15:27:30.930Z,7.9
2017-02-05T15:28:40.372Z,7.93
2017-02-05T15:29:50.570Z,7.87
2017-02-05T15:31:00.393Z,7.79
2017-02-05T15:32:09.825Z,7.79